Archival Weather

Norman Y Mineta San Jose Intl

San Jose, California (KSJC)

Report from: Saturday, September 30, 2023 12:53 AM PDT
Current time: Thursday, July 18, 2024 8:48 PM PDT

Current weather – Weather history – Daily summaries
Weather forecast

Present weatherLight rain
Temperature17.2°C (63.0°F)
Dew point13.3°C (55.9°F)
Winds 3 kts (1.5 m/s, 3.5 mph) Southwest (230°)
Visibility6 mi. (9.7 km)
Clouds Few clouds 2,900 ft. (884 m)
Ceiling: Overcast 3,700 ft. (1,128 m)
Altimeter29.81 in.Hg (1009 mB)
PrecipitiationTrace
Precip. events Rain began 7:48 AM
Relative humidity78 %
Density altitude609 ft. (186 m)
Sea-level pressure100.9 kPa (1009 mB, 29.80 in.Hg)
Max temp last 24 hours25.6°C (78.1°F)
Min temp last 24 hours13.9°C (57.0°F)
Remarks Fully automated report
Automated weather observing station with precipitation discriminator
Flight conditions Visual Meteorological Conditions
Raw dataKSJC 300753Z AUTO 23003KT 6SM -RA FEW029 OVC037 17/13 A2981 RMK AO2 RAB48 SLP092 P0000 T01720133 402560139
An error has occurred. This application may no longer respond until reloaded. Reload 🗙